Terminal Aerodrome Forecast
Issued by NWS Albany, NY

Home | Current Version | Previous Version | Text Only | Print | Product List | Glossary On
Versions: 1 2 3 4 5 6 7 8 9 10 11 12 13 14 15 16 17 18 19 20
000
FTUS41 KALY 280523
TAFGFL
TAF
KGFL 280523Z 2806/2906 00000KT 4SM BR SCT002
      TEMPO 2806/2809 2SM BR BKN002
     FM280900 00000KT 1SM BR VV002
     FM281200 02003KT 4SM BR SCT002 SCT050
     FM281300 05006KT P6SM SCT050
     FM290000 04003KT P6SM BKN025 BKN150=

USA.gov is the U.S. government's official web portal to all federal, state and local government web resources and services.